Terminal Aerodrome Forecast
Issued by NWS Tulsa, OK

Home | Current Version | Previous Version | Text Only | Print | Product List | Glossary On
Versions: 1 2 3 4 5 6 7 8 9 10 11 12 13 14 15 16
000
FTUS44 KTSA 302331
TAFTUL
TAF
KTUL 302331Z 3100/3124 07009KT P6SM BKN140 BKN250
     FM310600 08003KT P6SM BKN150 BKN250
     FM311600 18008KT P6SM SCT100 BKN250=

USA.gov is the U.S. government's official web portal to all federal, state and local government web resources and services.